Ariel, Washington
Current Conditions -  °F | °C
As of 12:15 PM on Friday 19 Dec 2014 (Local Time) from KKLS Reporting Station
Broken Clouds Broken Clouds  
Wind Chill: 44°   Ceiling: 11000
Heat Index: 48°   Visibility: 10mi
Dew Point: 39°   Wind: 10mph
Humidity: 71%   Direction: 160°SSE
Pressure: 30.04"   Gusts: 21mph
Location:  45.96°N, 122.57°W
Report Text: KKLS 192015Z 16009G18KT 10SM FEW020 BKN110 09/04 A3004 RMK AO1
Loading
Personal Weather Stations






























Interactive Weather Map New forecast layout! Learn more

10-Day Weather Forecast

Advertisements
Track Severe Weather on mobile